Time;durP1;ratioP1;P1;durP2;ratioP2;P2;SDS_P1;SDS_P2;PMS_P1;PMS_P2;Temp;Humidity;BMP_temperature;BMP_pressure;BME280_temperature;BME280_humidity;BME280_pressure;Samples;Min_cycle;Max_cycle;Signal;HPM_P1;HPM_P2
2022/04/28 00:00:01;;;;;;;8.75;3.75;;;8.20;99.90;;;;;;5015322;28;20041;-69
2022/04/28 00:02:28;;;;;;;9.65;3.53;;;8.20;99.90;;;;;;5015386;28;20085;-69
2022/04/28 00:04:54;;;;;;;7.18;3.30;;;8.20;99.90;;;;;;5014174;28;20049;-69
2022/04/28 00:07:20;;;;;;;10.32;3.47;;;8.30;99.90;;;;;;5015578;28;20396;-69
2022/04/28 00:09:45;;;;;;;6.38;3.50;;;8.30;99.90;;;;;;5015432;28;20085;-69
2022/04/28 00:12:12;;;;;;;8.52;3.75;;;8.30;99.90;;;;;;5013793;28;20092;-69
2022/04/28 00:14:38;;;;;;;10.32;4.07;;;8.30;99.90;;;;;;5015210;28;20500;-69
2022/04/28 00:17:04;;;;;;;7.32;3.15;;;8.30;99.90;;;;;;5015174;28;20083;-69
2022/04/28 00:19:29;;;;;;;5.32;3.28;;;8.30;99.90;;;;;;5015157;28;20037;-69
2022/04/28 00:21:55;;;;;;;12.32;4.28;;;8.30;99.90;;;;;;5014946;28;20038;-69
2022/04/28 00:24:20;;;;;;;9.65;3.20;;;8.30;99.90;;;;;;5015007;28;20048;-69
2022/04/28 00:26:46;;;;;;;12.80;3.65;;;8.30;99.90;;;;;;5015009;28;20496;-69
2022/04/28 00:29:12;;;;;;;8.48;3.25;;;8.30;99.90;;;;;;5015057;28;20045;-69
2022/04/28 00:31:37;;;;;;;9.00;3.10;;;8.30;99.90;;;;;;5014636;28;20634;-69
2022/04/28 00:34:03;;;;;;;11.73;3.75;;;8.20;99.90;;;;;;5013550;28;20042;-69
2022/04/28 00:36:29;;;;;;;7.95;3.25;;;8.20;99.90;;;;;;5015014;28;20404;-69
2022/04/28 00:38:54;;;;;;;10.23;3.60;;;8.20;99.90;;;;;;5014824;28;20041;-69
2022/04/28 00:41:20;;;;;;;10.88;4.22;;;8.20;99.90;;;;;;5014538;28;20049;-69
2022/04/28 00:43:51;;;;;;;15.20;3.90;;;8.20;99.90;;;;;;5014683;28;20037;-69
2022/04/28 00:46:17;;;;;;;9.07;4.20;;;8.30;99.90;;;;;;5014611;28;20041;-69
2022/04/28 00:51:30;;;;;;;11.18;4.50;;;8.30;99.90;;;;;;5014430;28;20042;-69
2022/04/28 00:53:57;;;;;;;8.70;3.38;;;8.40;99.90;;;;;;5014590;28;20045;-69
2022/04/28 00:56:23;;;;;;;14.02;3.92;;;8.40;99.90;;;;;;5014548;28;20050;-69
2022/04/28 00:58:49;;;;;;;10.77;4.03;;;8.40;99.90;;;;;;5014406;28;20517;-69
2022/04/28 01:01:16;;;;;;;10.88;3.55;;;8.40;99.90;;;;;;5014215;28;20048;-69
2022/04/28 01:03:41;;;;;;;7.90;4.10;;;8.40;99.90;;;;;;5014084;28;20036;-69
2022/04/28 01:06:07;;;;;;;8.02;3.65;;;8.40;99.90;;;;;;5013921;28;20411;-69
2022/04/28 01:08:33;;;;;;;7.57;3.53;;;8.40;99.90;;;;;;5014376;28;20084;-69
2022/04/28 01:10:59;;;;;;;8.10;3.83;;;8.40;99.90;;;;;;5013972;28;20112;-69
2022/04/28 01:13:24;;;;;;;13.88;4.15;;;8.40;99.90;;;;;;5014053;28;20038;-69
2022/04/28 01:15:50;;;;;;;10.90;3.90;;;8.40;99.90;;;;;;5014362;28;20113;-69
2022/04/28 01:18:17;;;;;;;11.85;3.30;;;8.50;99.90;;;;;;5014313;28;20041;-69
2022/04/28 01:20:43;;;;;;;6.00;3.40;;;8.50;99.90;;;;;;5012554;28;20508;-69
2022/04/28 01:23:09;;;;;;;11.70;3.97;;;8.50;99.90;;;;;;5013879;28;20049;-69
2022/04/28 01:25:35;;;;;;;13.40;3.80;;;8.50;99.90;;;;;;5013972;28;20037;-69
2022/04/28 01:28:01;;;;;;;11.05;4.05;;;8.60;99.90;;;;;;5013795;28;20041;-69
2022/04/28 01:30:27;;;;;;;10.52;4.15;;;8.60;99.90;;;;;;5013809;28;20561;-69
2022/04/28 01:33:02;;;;;;;9.70;3.78;;;8.60;99.90;;;;;;5013923;28;20041;-69
2022/04/28 01:35:27;;;;;;;8.23;3.63;;;8.50;99.90;;;;;;5013783;28;20101;-68
2022/04/28 01:37:53;;;;;;;8.38;3.20;;;8.60;99.90;;;;;;5013611;28;20046;-67
2022/04/28 01:40:20;;;;;;;11.27;3.78;;;8.60;99.90;;;;;;5013433;28;20049;-67
2022/04/28 01:42:47;;;;;;;10.77;4.60;;;8.60;99.90;;;;;;5012230;28;20491;-67
2022/04/28 01:45:14;;;;;;;8.57;3.92;;;8.60;99.90;;;;;;5013454;28;20049;-67
2022/04/28 01:47:39;;;;;;;9.15;4.10;;;8.60;99.90;;;;;;5013538;28;20034;-67
2022/04/28 01:50:08;;;;;;;8.50;3.63;;;8.50;99.90;;;;;;5012152;28;20129;-67
2022/04/28 01:55:18;;;;;;;9.77;4.07;;;8.50;99.90;;;;;;5013346;28;20073;-67
2022/04/28 01:57:43;;;;;;;6.85;3.95;;;8.50;99.90;;;;;;5012107;28;20065;-67
2022/04/28 02:00:10;;;;;;;10.52;3.72;;;8.40;99.90;;;;;;5011757;28;20042;-67
2022/04/28 02:02:36;;;;;;;7.75;4.35;;;8.30;99.90;;;;;;5013121;28;20038;-67
2022/04/28 02:05:02;;;;;;;10.48;3.70;;;8.30;99.90;;;;;;5013174;28;20041;-67
2022/04/28 02:07:29;;;;;;;9.93;3.25;;;8.40;99.90;;;;;;5013189;28;20087;-67
2022/04/28 02:09:55;;;;;;;6.60;2.90;;;8.40;99.90;;;;;;5011952;28;20400;-67
2022/04/28 02:12:21;;;;;;;9.88;3.60;;;8.50;99.90;;;;;;5013232;28;20044;-67
2022/04/28 02:14:47;;;;;;;13.85;4.00;;;8.50;99.90;;;;;;5012959;28;20408;-67
2022/04/28 02:17:17;;;;;;;7.55;3.50;;;8.50;99.90;;;;;;5011705;28;20042;-67
2022/04/28 02:19:42;;;;;;;9.32;4.03;;;8.50;99.90;;;;;;5012996;28;20092;-67
2022/04/28 02:22:08;;;;;;;7.53;3.38;;;8.50;99.90;;;;;;5012558;28;20046;-67
2022/04/28 02:24:34;;;;;;;12.65;4.22;;;8.50;99.90;;;;;;5012802;28;20119;-67
2022/04/28 02:26:59;;;;;;;6.30;3.75;;;8.40;99.90;;;;;;5011858;28;20420;-67
2022/04/28 02:29:25;;;;;;;9.90;3.50;;;8.40;99.90;;;;;;5011524;28;20099;-67
2022/04/28 02:31:50;;;;;;;7.50;3.25;;;8.40;99.90;;;;;;5012532;28;20096;-67
2022/04/28 02:34:16;;;;;;;8.45;3.20;;;8.40;99.90;;;;;;5011664;28;20519;-67
2022/04/28 02:36:42;;;;;;;9.38;3.33;;;8.40;99.90;;;;;;5012569;28;20104;-67
2022/04/28 02:39:09;;;;;;;10.25;3.45;;;8.40;99.90;;;;;;5011542;28;20103;-67
2022/04/28 02:41:35;;;;;;;8.38;4.07;;;8.40;99.90;;;;;;5010956;28;20053;-67
2022/04/28 02:44:01;;;;;;;10.75;3.55;;;8.40;99.90;;;;;;5012649;28;20038;-67
2022/04/28 02:46:27;;;;;;;5.60;3.47;;;8.40;99.90;;;;;;5012581;28;20089;-67
2022/04/28 02:48:53;;;;;;;8.38;3.72;;;8.40;99.90;;;;;;5012424;28;20033;-67
2022/04/28 02:51:18;;;;;;;7.03;3.78;;;8.40;99.90;;;;;;5012009;28;20095;-67
2022/04/28 02:53:44;;;;;;;7.47;4.07;;;8.40;99.90;;;;;;5012541;28;20038;-67
2022/04/28 02:56:09;;;;;;;12.60;4.55;;;8.50;99.90;;;;;;5012497;28;20037;-67
2022/04/28 02:58:35;;;;;;;7.22;3.35;;;8.40;99.90;;;;;;5011327;28;20538;-67
2022/04/28 03:01:04;;;;;;;11.60;4.15;;;8.40;99.90;;;;;;5011888;28;20548;-67
2022/04/28 03:03:30;;;;;;;16.08;4.30;;;8.40;99.90;;;;;;5012079;28;20654;-67
2022/04/28 03:11:27;;;;;;;9.07;3.95;;;8.40;99.90;;;;;;5012039;28;20042;-67
2022/04/28 03:13:54;;;;;;;9.65;4.13;;;8.40;99.90;;;;;;5012139;28;20038;-67
2022/04/28 03:16:19;;;;;;;7.43;4.50;;;8.40;99.90;;;;;;5010851;28;20034;-67
2022/04/28 03:18:45;;;;;;;13.00;4.60;;;8.40;99.90;;;;;;5010758;28;20407;-67
2022/04/28 03:21:14;;;;;;;7.70;3.72;;;8.50;99.90;;;;;;5010440;28;20050;-67
2022/04/28 03:23:40;;;;;;;10.15;4.85;;;8.40;99.90;;;;;;5011945;28;20038;-67
2022/04/28 03:26:05;;;;;;;11.23;4.22;;;8.40;99.90;;;;;;5012124;28;20044;-67
2022/04/28 03:28:34;;;;;;;8.95;4.00;;;8.50;99.90;;;;;;5016780;28;20080;-68
2022/04/28 03:31:01;;;;;;;8.07;4.00;;;8.50;99.90;;;;;;5018087;28;20081;-68
2022/04/28 03:33:27;;;;;;;7.93;3.97;;;8.50;99.90;;;;;;5018535;28;20042;-68
2022/04/28 03:35:52;;;;;;;9.02;3.88;;;8.50;99.90;;;;;;5017227;28;20136;-68
2022/04/28 03:38:18;;;;;;;11.60;3.70;;;8.50;99.90;;;;;;5018587;28;20052;-68
2022/04/28 03:40:44;;;;;;;9.73;4.55;;;8.50;99.90;;;;;;5000752;28;20438;-68
2022/04/28 03:43:09;;;;;;;5.90;3.50;;;8.50;99.90;;;;;;5018355;28;20728;-67
2022/04/28 03:45:36;;;;;;;6.75;4.50;;;8.50;99.90;;;;;;5017019;28;20034;-68
2022/04/28 03:48:03;;;;;;;6.97;3.35;;;8.50;99.90;;;;;;5018510;28;20080;-67
2022/04/28 03:50:30;;;;;;;9.73;3.90;;;8.50;99.90;;;;;;5018172;28;20122;-67
2022/04/28 03:52:56;;;;;;;8.20;3.40;;;8.50;99.90;;;;;;5016982;28;20042;-67
2022/04/28 03:55:22;;;;;;;10.10;3.63;;;8.50;99.90;;;;;;5018373;28;20169;-67
2022/04/28 03:57:48;;;;;;;12.15;4.20;;;8.60;99.90;;;;;;5017025;28;20045;-67
2022/04/28 04:00:14;;;;;;;10.93;3.20;;;8.60;99.90;;;;;;5017823;28;20041;-67
2022/04/28 04:02:39;;;;;;;12.27;3.47;;;8.60;99.90;;;;;;5016780;28;20045;-68
2022/04/28 04:05:05;;;;;;;8.23;3.45;;;8.60;99.90;;;;;;5016977;28;20495;-67
2022/04/28 04:07:33;;;;;;;9.50;3.65;;;8.60;99.90;;;;;;5016892;28;20048;-67
2022/04/28 04:09:58;;;;;;;8.43;3.72;;;8.60;99.90;;;;;;5017898;28;20475;-67
2022/04/28 04:12:25;;;;;;;10.38;3.78;;;8.60;99.90;;;;;;5018096;28;20069;-67
2022/04/28 04:14:52;;;;;;;9.00;3.38;;;8.60;99.90;;;;;;5017051;28;20081;-67
2022/04/28 04:17:18;;;;;;;10.90;3.58;;;8.60;99.90;;;;;;5016993;28;20045;-67
2022/04/28 04:19:44;;;;;;;10.98;4.18;;;8.50;99.90;;;;;;5018178;28;20416;-67
2022/04/28 04:22:09;;;;;;;9.32;4.07;;;8.50;99.90;;;;;;5016508;28;20415;-67
2022/04/28 04:24:35;;;;;;;8.90;4.30;;;8.50;99.90;;;;;;5017816;28;20048;-67
2022/04/28 04:27:01;;;;;;;9.20;4.03;;;8.50;99.90;;;;;;5017975;28;20404;-67
2022/04/28 04:29:27;;;;;;;11.82;3.95;;;8.50;99.90;;;;;;5016499;28;20038;-67
2022/04/28 04:34:36;;;;;;;12.95;5.07;;;8.50;99.90;;;;;;5017988;28;20046;-67
2022/04/28 04:37:02;;;;;;;11.07;5.22;;;8.50;99.90;;;;;;5016613;28;20049;-67
2022/04/28 04:39:28;;;;;;;10.77;5.18;;;8.50;99.90;;;;;;5013693;28;20046;-67
2022/04/28 04:41:53;;;;;;;16.00;4.55;;;8.50;99.90;;;;;;5014338;28;20118;-67
2022/04/28 04:44:19;;;;;;;7.43;4.38;;;8.40;99.90;;;;;;5014813;28;20034;-67
2022/04/28 04:46:44;;;;;;;7.65;4.22;;;8.50;99.90;;;;;;5014715;28;20034;-68
2022/04/28 04:49:11;;;;;;;11.45;4.85;;;8.50;99.90;;;;;;5013385;28;20040;-68
2022/04/28 04:51:36;;;;;;;8.60;4.63;;;8.50;99.90;;;;;;5014344;28;20038;-67
2022/04/28 04:54:02;;;;;;;10.75;5.53;;;8.50;99.90;;;;;;5014582;28;20049;-67
2022/04/28 04:56:27;;;;;;;15.02;5.07;;;8.50;99.90;;;;;;5014508;28;20050;-67
2022/04/28 04:58:53;;;;;;;13.60;5.05;;;8.40;99.90;;;;;;5014705;28;20037;-66
2022/04/28 05:01:18;;;;;;;8.63;4.60;;;8.40;99.90;;;;;;5014116;28;20455;-68
2022/04/28 05:03:44;;;;;;;10.82;5.15;;;8.40;99.90;;;;;;5014503;28;20407;-67
2022/04/28 05:06:10;;;;;;;13.20;5.47;;;8.50;99.90;;;;;;5014518;28;20668;-67
2022/04/28 05:08:35;;;;;;;9.82;4.85;;;8.40;99.90;;;;;;5014352;28;20513;-68
2022/04/28 05:11:01;;;;;;;8.82;5.35;;;8.40;99.90;;;;;;5013842;28;20381;-68
2022/04/28 05:13:26;;;;;;;10.00;5.55;;;8.40;99.90;;;;;;5013006;28;20128;-67
2022/04/28 05:15:53;;;;;;;16.15;5.65;;;8.40;99.90;;;;;;5013043;28;20054;-67
2022/04/28 05:18:19;;;;;;;11.35;5.30;;;8.40;99.90;;;;;;5014337;28;20559;-67
2022/04/28 05:20:44;;;;;;;14.68;5.60;;;8.50;99.90;;;;;;5010100;28;20324;-67
2022/04/28 05:23:13;;;;;;;14.32;5.28;;;8.50;99.90;;;;;;5009238;28;20514;-66
2022/04/28 05:25:38;;;;;;;11.98;4.93;;;8.50;99.90;;;;;;5006282;28;20034;-67
2022/04/28 05:28:04;;;;;;;12.02;4.95;;;8.40;99.90;;;;;;5012872;28;20403;-66
2022/04/28 05:30:30;;;;;;;13.20;5.15;;;8.50;99.90;;;;;;5013060;28;20065;-67
2022/04/28 05:32:55;;;;;;;14.30;5.88;;;8.50;99.90;;;;;;5012324;28;20049;-66
2022/04/28 05:35:21;;;;;;;17.35;5.05;;;8.70;99.90;;;;;;5013617;28;20030;-67
2022/04/28 05:37:46;;;;;;;14.68;4.95;;;8.90;99.90;;;;;;5012136;28;20045;-67
2022/04/28 05:40:15;;;;;;;14.07;5.07;;;9.00;99.90;;;;;;5011640;28;20496;-66
2022/04/28 05:45:45;;;;;;;7.68;3.97;;;9.30;99.90;;;;;;5012670;28;20053;-67
2022/04/28 05:48:12;;;;;;;7.65;3.42;;;9.50;99.90;;;;;;5013701;28;20038;-66
2022/04/28 05:50:39;;;;;;;10.88;4.45;;;9.60;99.90;;;;;;5012748;28;20042;-67
2022/04/28 05:53:05;;;;;;;9.70;3.92;;;9.40;99.90;;;;;;5013616;28;20136;-67
2022/04/28 05:55:30;;;;;;;7.15;3.70;;;9.40;99.90;;;;;;5005735;28;20504;-67
2022/04/28 05:57:59;;;;;;;22.73;4.22;;;9.50;99.90;;;;;;5011689;28;20092;-67
2022/04/28 06:00:26;;;;;;;8.55;3.50;;;9.50;99.90;;;;;;5004919;28;20038;-66
2022/04/28 06:02:52;;;;;;;10.20;3.75;;;9.60;99.90;;;;;;5013245;28;20046;-66
2022/04/28 06:05:18;;;;;;;10.43;3.22;;;9.60;99.90;;;;;;5013481;28;20034;-67
2022/04/28 06:07:43;;;;;;;12.25;3.00;;;9.60;99.90;;;;;;5012789;28;20504;-67
2022/04/28 06:10:09;;;;;;;11.77;3.05;;;9.70;99.90;;;;;;5011624;28;20381;-67
2022/04/28 06:12:35;;;;;;;14.52;3.30;;;9.70;99.90;;;;;;5013213;28;20408;-67
2022/04/28 06:15:01;;;;;;;11.25;3.95;;;9.90;99.90;;;;;;5011566;28;20050;-67
2022/04/28 06:17:27;;;;;;;7.25;2.00;;;10.00;99.90;;;;;;5012441;28;20056;-67
2022/04/28 06:19:52;;;;;;;10.48;2.95;;;9.90;99.90;;;;;;5011535;28;20054;-67
2022/04/28 06:22:18;;;;;;;12.18;3.30;;;9.80;99.90;;;;;;5011340;28;20519;-67
2022/04/28 06:24:43;;;;;;;8.50;2.50;;;9.90;99.90;;;;;;5012981;28;20042;-67
2022/04/28 06:27:09;;;;;;;8.55;2.80;;;9.80;99.90;;;;;;5011565;28;20113;-67
2022/04/28 06:29:34;;;;;;;7.13;2.85;;;9.80;99.90;;;;;;5011500;28;20045;-67
2022/04/28 06:32:00;;;;;;;10.35;3.35;;;9.80;99.90;;;;;;5011457;28;20393;-67
2022/04/28 06:34:25;;;;;;;8.00;2.40;;;9.70;99.90;;;;;;5011409;28;20038;-67
2022/04/28 06:36:51;;;;;;;11.63;3.13;;;9.60;99.90;;;;;;5011658;28;20045;-67
2022/04/28 06:39:17;;;;;;;8.57;2.92;;;9.50;99.90;;;;;;5011395;28;20077;-67
2022/04/28 06:41:42;;;;;;;11.32;3.35;;;9.50;99.90;;;;;;5012317;28;20077;-67
2022/04/28 06:44:08;;;;;;;5.90;2.30;;;9.50;99.90;;;;;;5011151;28;20038;-67
2022/04/28 06:46:33;;;;;;;14.20;3.17;;;9.50;99.90;;;;;;5011147;28;20038;-67
2022/04/28 06:48:59;;;;;;;15.65;3.35;;;9.60;99.90;;;;;;5011165;28;20053;-67
2022/04/28 06:51:24;;;;;;;11.18;2.97;;;9.80;99.90;;;;;;5012344;28;20037;-67
2022/04/28 06:53:50;;;;;;;13.85;2.55;;;10.20;99.90;;;;;;5011055;28;20049;-67
2022/04/28 06:56:16;;;;;;;10.65;2.20;;;10.80;99.90;;;;;;5012440;28;20034;-67
2022/04/28 06:58:42;;;;;;;7.68;2.47;;;11.30;99.90;;;;;;5012370;28;20388;-67
2022/04/28 07:01:08;;;;;;;7.88;3.00;;;11.70;99.90;;;;;;5011869;28;20044;-67
2022/04/28 07:03:33;;;;;;;9.30;2.70;;;11.60;99.50;;;;;;5011396;28;20038;-67
2022/04/28 07:05:59;;;;;;;5.63;2.05;;;11.50;98.30;;;;;;5012343;28;20049;-67
2022/04/28 07:08:24;;;;;;;16.20;3.50;;;11.30;99.30;;;;;;5010962;28;20037;-67
2022/04/28 07:10:50;;;;;;;6.97;1.90;;;10.90;99.70;;;;;;5012030;28;20033;-67
2022/04/28 07:13:16;;;;;;;8.32;2.10;;;10.80;99.60;;;;;;5012042;28;20492;-67
2022/04/28 07:15:42;;;;;;;9.63;2.75;;;10.70;99.70;;;;;;5011920;28;20041;-67
2022/04/28 07:18:07;;;;;;;9.15;2.10;;;10.60;99.90;;;;;;5012015;28;20033;-67
2022/04/28 07:20:34;;;;;;;11.23;2.22;;;10.90;99.90;;;;;;5011885;28;20034;-67
2022/04/28 07:23:00;;;;;;;13.90;3.97;;;11.00;99.70;;;;;;5011854;28;20042;-67
2022/04/28 07:25:27;;;;;;;3.55;1.48;;;11.00;99.10;;;;;;5012083;28;20045;-67
2022/04/28 07:27:54;;;;;;;13.10;2.63;;;11.00;98.50;;;;;;5011948;28;20108;-67
2022/04/28 07:30:20;;;;;;;7.32;1.75;;;11.20;96.60;;;;;;5011667;28;20076;-67
2022/04/28 07:32:50;;;;;;;8.45;2.28;;;11.10;94.40;;;;;;5011917;28;20076;-67
2022/04/28 07:35:16;;;;;;;6.45;1.95;;;11.30;94.60;;;;;;5012084;28;20228;-67
2022/04/28 07:37:42;;;;;;;7.95;2.20;;;11.70;93.10;;;;;;5011913;28;20038;-67
2022/04/28 07:40:08;;;;;;;5.50;1.98;;;11.80;92.90;;;;;;5010665;28;20038;-67
2022/04/28 07:42:34;;;;;;;8.93;2.30;;;11.10;92.80;;;;;;5011905;28;20100;-67
2022/04/28 07:45:00;;;;;;;5.18;2.20;;;10.90;94.80;;;;;;5010562;28;20488;-67
2022/04/28 07:47:26;;;;;;;8.30;2.38;;;10.80;96.50;;;;;;5010617;28;20492;-67
2022/04/28 07:49:53;;;;;;;9.15;2.05;;;11.00;96.90;;;;;;5010603;28;20372;-67
2022/04/28 07:52:18;;;;;;;10.38;2.22;;;11.20;95.90;;;;;;5011758;28;20081;-67
2022/04/28 07:54:44;;;;;;;10.40;2.50;;;11.20;95.30;;;;;;5011734;28;20088;-67
2022/04/28 07:57:10;;;;;;;10.27;2.60;;;11.50;94.90;;;;;;5011620;28;20049;-67
2022/04/28 07:59:37;;;;;;;7.72;2.22;;;11.30;94.80;;;;;;5011838;28;20117;-67
2022/04/28 08:02:08;;;;;;;7.15;2.33;;;11.30;95.10;;;;;;5010098;28;20096;-67
2022/04/28 08:04:33;;;;;;;7.72;1.95;;;11.20;93.90;;;;;;5010488;28;20045;-67
2022/04/28 08:06:59;;;;;;;6.28;1.83;;;11.30;93.50;;;;;;5011618;28;20034;-67
2022/04/28 08:09:25;;;;;;;7.85;2.20;;;11.60;92.00;;;;;;5010732;28;20046;-67
2022/04/28 08:11:51;;;;;;;8.52;1.83;;;11.50;91.80;;;;;;5011390;28;20041;-67
2022/04/28 08:14:16;;;;;;;12.05;1.80;;;11.80;90.20;;;;;;5013345;28;20042;-68
2022/04/28 08:16:44;;;;;;;7.35;1.77;;;12.50;89.60;;;;;;5014040;28;20185;-67
2022/04/28 08:19:09;;;;;;;5.05;1.63;;;13.00;82.50;;;;;;5014006;28;20119;-68
2022/04/28 08:21:35;;;;;;;4.80;1.98;;;13.40;79.70;;;;;;4997442;28;20457;-67
2022/04/28 08:24:00;;;;;;;7.50;2.53;;;13.40;75.70;;;;;;5013929;28;20069;-67
2022/04/28 08:26:26;;;;;;;4.97;1.95;;;13.30;72.80;;;;;;5015011;28;20069;-68
2022/04/28 08:28:52;;;;;;;5.85;1.75;;;13.50;70.00;;;;;;5015016;28;20029;-68
2022/04/28 08:31:17;;;;;;;12.68;2.70;;;13.70;68.70;;;;;;5013664;28;20446;-68
2022/04/28 08:33:43;;;;;;;5.65;1.90;;;13.40;70.50;;;;;;5014942;28;20041;-67
2022/04/28 08:36:09;;;;;;;7.10;1.98;;;12.70;73.70;;;;;;5014976;28;20038;-68
2022/04/28 08:38:34;;;;;;;6.78;1.95;;;12.40;76.50;;;;;;5014950;28;20120;-67
2022/04/28 08:41:02;;;;;;;8.75;2.17;;;12.40;79.30;;;;;;5014447;28;20041;-68
2022/04/28 08:43:34;;;;;;;9.02;2.58;;;12.00;82.10;;;;;;5013358;28;20096;-67
2022/04/28 08:48:54;;;;;;;7.13;2.20;;;12.00;83.90;;;;;;5014860;28;20125;-68
2022/04/28 08:51:21;;;;;;;10.50;2.25;;;11.80;86.20;;;;;;5014499;28;20045;-67
2022/04/28 08:53:50;;;;;;;9.25;2.63;;;11.80;87.40;;;;;;5014382;28;20553;-68
2022/04/28 08:56:17;;;;;;;9.40;2.60;;;11.70;89.40;;;;;;5014667;28;20045;-67
2022/04/28 08:58:43;;;;;;;5.50;2.60;;;11.80;89.20;;;;;;5013110;28;20052;-67
2022/04/28 09:01:09;;;;;;;7.47;3.08;;;11.60;90.70;;;;;;4996714;28;20046;-67
2022/04/28 09:03:34;;;;;;;8.57;4.35;;;11.90;92.00;;;;;;4996942;28;20041;-68
2022/04/28 09:06:40;;;;;;;10.65;4.20;;;11.90;92.00;;;;;;5014666;28;20447;-67
2022/04/28 09:09:07;;;;;;;7.70;4.03;;;11.90;91.70;;;;;;4992354;28;20539;-67
2022/04/28 09:11:36;;;;;;;11.30;4.13;;;11.40;92.80;;;;;;4975793;28;20531;-67
2022/04/28 09:14:11;;;;;;;12.68;4.93;;;11.40;94.30;;;;;;4993258;28;20058;-67
2022/04/28 09:16:45;;;;;;;9.38;4.10;;;11.70;95.50;;;;;;5012960;28;20042;-68
2022/04/28 09:19:17;;;;;;;10.65;3.60;;;11.90;93.70;;;;;;5014418;28;20403;-67
2022/04/28 09:21:43;;;;;;;8.05;3.50;;;12.30;91.50;;;;;;5012473;28;20558;-67
2022/04/28 09:24:10;;;;;;;11.38;3.90;;;12.20;90.50;;;;;;5012524;28;20077;-67
2022/04/28 09:26:37;;;;;;;10.20;4.07;;;12.20;87.40;;;;;;5013342;28;20042;-67
2022/04/28 09:29:04;;;;;;;8.35;3.65;;;12.10;90.60;;;;;;5013918;28;20120;-67
2022/04/28 09:31:34;;;;;;;12.05;3.80;;;11.80;90.50;;;;;;5013807;28;20053;-68
2022/04/28 09:34:12;;;;;;;12.85;3.70;;;11.80;91.60;;;;;;5013948;28;20037;-67
2022/04/28 09:36:39;;;;;;;13.13;4.28;;;11.90;93.70;;;;;;5014004;28;20041;-67
2022/04/28 09:39:06;;;;;;;12.43;4.15;;;11.80;93.40;;;;;;5013812;28;20096;-67
2022/04/28 09:44:20;;;;;;;11.32;3.58;;;11.50;94.30;;;;;;5013816;28;20046;-67
2022/04/28 09:46:47;;;;;;;13.13;3.47;;;11.60;95.20;;;;;;5012472;28;20042;-67
2022/04/28 09:49:16;;;;;;;14.63;3.78;;;11.30;94.70;;;;;;5013810;28;20042;-67
2022/04/28 09:51:42;;;;;;;10.13;3.30;;;11.60;95.20;;;;;;5013203;28;20041;-67
2022/04/28 09:54:13;;;;;;;12.70;2.85;;;11.40;95.10;;;;;;5013339;28;20037;-67
2022/04/28 09:56:44;;;;;;;6.70;2.95;;;11.50;94.50;;;;;;5013773;28;20038;-67
2022/04/28 09:59:12;;;;;;;10.15;3.08;;;11.60;96.10;;;;;;5013487;28;20045;-67
2022/04/28 10:01:39;;;;;;;9.02;2.90;;;11.50;94.80;;;;;;5013008;28;20045;-68
2022/04/28 10:04:06;;;;;;;9.90;3.00;;;11.60;94.50;;;;;;5013217;28;20038;-68
2022/04/28 10:06:34;;;;;;;11.75;3.47;;;11.80;95.00;;;;;;5013266;28;20117;-67
2022/04/28 10:09:04;;;;;;;12.90;3.40;;;11.60;94.40;;;;;;5013013;28;20052;-67
2022/04/28 10:11:30;;;;;;;10.68;3.38;;;12.00;95.10;;;;;;5012753;28;20523;-68
2022/04/28 10:13:57;;;;;;;12.90;3.58;;;12.00;93.80;;;;;;5013187;28;20038;-67
2022/04/28 10:16:24;;;;;;;8.60;3.45;;;12.00;92.70;;;;;;5013137;28;20041;-67
2022/04/28 10:19:14;;;;;;;11.45;2.90;;;11.90;93.30;;;;;;5013104;28;20045;-67
2022/04/28 10:21:58;;;;;;;12.30;3.63;;;11.90;93.40;;;;;;5011395;28;20133;-67
2022/04/28 10:32:59;;;;;;;10.48;3.83;;;12.00;92.60;;;;;;5011014;28;20046;-67
2022/04/28 10:35:36;;;;;;;10.88;2.97;;;12.20;91.40;;;;;;5012551;28;20558;-67
2022/04/28 10:38:24;;;;;;;4.90;2.20;;;12.20;90.60;;;;;;5010866;28;20436;-67
2022/04/28 10:41:11;;;;;;;7.25;2.70;;;12.10;90.30;;;;;;5003735;28;20503;-67
2022/04/28 10:43:41;;;;;;;10.25;2.10;;;12.30;89.70;;;;;;5009801;28;20125;-68
2022/04/28 10:46:06;;;;;;;11.77;3.00;;;12.70;91.00;;;;;;5011131;28;20057;-67
2022/04/28 10:48:43;;;;;;;9.30;3.08;;;12.50;88.90;;;;;;5012416;28;20038;-67
2022/04/28 10:51:15;;;;;;;12.30;3.20;;;12.60;89.10;;;;;;5011887;28;20105;-68
2022/04/28 10:54:01;;;;;;;10.30;3.60;;;12.30;86.10;;;;;;5010554;28;20447;-67
2022/04/28 10:56:40;;;;;;;9.18;2.97;;;11.90;87.20;;;;;;5009864;28;20038;-67
2022/04/28 10:59:29;;;;;;;8.32;2.75;;;12.70;88.10;;;;;;5012372;28;20046;-68
2022/04/28 11:02:15;;;;;;;7.45;2.58;;;13.10;90.30;;;;;;5012136;28;20116;-67
2022/04/28 11:04:44;;;;;;;14.88;3.20;;;13.20;89.60;;;;;;5008085;28;20046;-67
2022/04/28 11:07:24;;;;;;;7.18;2.78;;;12.70;86.90;;;;;;5012157;28;20499;-67
2022/04/28 11:10:13;;;;;;;12.75;2.88;;;12.40;85.50;;;;;;5012426;28;20446;-67
2022/04/28 11:12:42;;;;;;;14.23;3.65;;;12.30;87.60;;;;;;5012161;28;20042;-67
2022/04/28 11:15:13;;;;;;;14.02;3.10;;;12.30;89.90;;;;;;5012079;28;20518;-66
2022/04/28 11:17:44;;;;;;;12.95;2.95;;;12.40;91.60;;;;;;5012014;28;20557;-67
2022/04/28 11:20:12;;;;;;;12.55;2.85;;;12.40;91.80;;;;;;5011911;28;20053;-66
2022/04/28 11:22:45;;;;;;;10.23;2.95;;;12.20;91.80;;;;;;5011432;28;20045;-67
2022/04/28 11:25:15;;;;;;;10.27;3.20;;;12.40;91.70;;;;;;5011533;28;20589;-68
2022/04/28 11:27:41;;;;;;;11.70;3.22;;;12.30;91.30;;;;;;5009166;28;20088;-68
2022/04/28 11:30:14;;;;;;;7.78;3.35;;;12.30;90.10;;;;;;5011270;28;20545;-68
2022/04/28 11:32:52;;;;;;;11.00;3.65;;;12.10;89.20;;;;;;5012082;28;20088;-67
2022/04/28 11:35:18;;;;;;;8.00;2.70;;;12.40;89.70;;;;;;5012096;28;20038;-68
2022/04/28 11:37:44;;;;;;;17.05;4.40;;;12.40;88.40;;;;;;5011936;28;20042;-67
2022/04/28 11:40:14;;;;;;;12.75;3.20;;;12.40;91.10;;;;;;5011700;28;20384;-67
2022/04/28 11:42:41;;;;;;;8.98;2.95;;;12.20;91.30;;;;;;5011708;28;20073;-67
2022/04/28 11:45:07;;;;;;;10.48;2.97;;;12.10;91.60;;;;;;5011842;28;20061;-68
2022/04/28 11:47:42;;;;;;;10.27;2.97;;;12.30;91.90;;;;;;5011877;28;20523;-67
2022/04/28 11:50:16;;;;;;;6.60;2.55;;;12.40;92.10;;;;;;5014921;28;20045;-68
2022/04/28 11:52:42;;;;;;;8.73;2.58;;;12.60;91.40;;;;;;5015754;28;20053;-68
2022/04/28 11:55:09;;;;;;;9.15;3.35;;;12.50;91.60;;;;;;5014584;28;20050;-68
2022/04/28 11:57:39;;;;;;;9.43;3.22;;;12.40;90.10;;;;;;5015838;28;20042;-68
2022/04/28 12:00:12;;;;;;;10.98;2.85;;;12.30;90.70;;;;;;5015649;28;20042;-68
2022/04/28 12:02:39;;;;;;;10.52;3.03;;;12.40;89.30;;;;;;5015691;28;20468;-68
2022/04/28 12:05:19;;;;;;;11.48;3.13;;;12.30;90.60;;;;;;5015704;28;20034;-67
2022/04/28 12:07:51;;;;;;;8.57;3.05;;;12.20;90.80;;;;;;5014282;28;20129;-68
2022/04/28 12:15:55;;;;;;;8.02;3.03;;;11.90;92.00;;;;;;5012987;28;20042;-67
2022/04/28 12:21:21;;;;;;;8.85;2.80;;;12.10;90.60;;;;;;5014458;28;20042;-67
2022/04/28 12:23:52;;;;;;;11.68;3.78;;;12.40;93.20;;;;;;5013650;28;20411;-67
2022/04/28 12:26:20;;;;;;;11.23;3.28;;;12.30;91.90;;;;;;5015236;28;20072;-68
2022/04/28 12:28:46;;;;;;;9.32;3.40;;;12.10;90.30;;;;;;5015034;28;20059;-68
2022/04/28 12:31:14;;;;;;;11.63;3.63;;;12.00;89.80;;;;;;5013336;28;20096;-68
2022/04/28 12:33:41;;;;;;;13.68;4.00;;;11.90;90.50;;;;;;5014786;28;20431;-68
2022/04/28 12:36:13;;;;;;;9.98;3.33;;;11.90;91.60;;;;;;5014776;28;20530;-68
2022/04/28 12:38:48;;;;;;;7.70;3.13;;;12.00;92.30;;;;;;5013603;28;20092;-68
2022/04/28 12:41:24;;;;;;;8.02;3.22;;;12.30;94.70;;;;;;5014556;28;20030;-68
2022/04/28 12:43:52;;;;;;;12.23;3.22;;;12.00;92.50;;;;;;5013401;28;20033;-68
2022/04/28 12:46:31;;;;;;;12.57;3.60;;;12.10;93.20;;;;;;5014493;28;20488;-68
2022/04/28 12:48:57;;;;;;;7.13;3.08;;;12.00;92.60;;;;;;5013376;28;20061;-68
2022/04/28 12:51:26;;;;;;;11.85;3.03;;;11.90;92.20;;;;;;5012615;28;20427;-68
2022/04/28 12:53:56;;;;;;;9.38;3.20;;;11.90;91.60;;;;;;5014447;28;20092;-68
2022/04/28 12:56:32;;;;;;;5.18;2.78;;;12.30;90.90;;;;;;5013511;28;20061;-68
2022/04/28 12:59:06;;;;;;;8.90;3.40;;;12.30;90.70;;;;;;5014560;28;20038;-68
2022/04/28 13:01:32;;;;;;;;;;;12.00;92.00;;;;;;5013433;28;20128;-68
2022/04/28 13:03:58;;;;;;;12.68;3.00;;;12.00;92.30;;;;;;5013180;28;20319;-68
2022/04/28 13:06:29;;;;;;;8.45;2.72;;;11.80;92.80;;;;;;5014319;28;20040;-68
2022/04/28 13:08:56;;;;;;;14.27;3.42;;;11.90;92.60;;;;;;5014236;28;20045;-68
2022/04/28 13:11:28;;;;;;;10.60;3.55;;;12.00;91.90;;;;;;5013886;28;20400;-69
2022/04/28 13:13:55;;;;;;;13.95;3.95;;;11.90;92.40;;;;;;5012938;28;20503;-69
2022/04/28 13:16:21;;;;;;;10.23;3.38;;;12.10;91.80;;;;;;5013979;28;20092;-68
2022/04/28 13:18:48;;;;;;;10.20;3.42;;;12.40;92.00;;;;;;5014319;28;20400;-68
2022/04/28 13:21:15;;;;;;;6.97;4.03;;;12.40;91.40;;;;;;5012449;28;20068;-69
2022/04/28 13:23:41;;;;;;;11.07;3.22;;;12.70;91.30;;;;;;5013722;28;20037;-68
2022/04/28 13:26:08;;;;;;;10.93;3.40;;;12.70;90.40;;;;;;5012572;28;20037;-71
2022/04/28 13:28:34;;;;;;;6.57;2.67;;;12.50;88.10;;;;;;5013846;28;20084;-68